Sprague, Washington
Current Conditions -  °F | °C
As of 5:15 PM on Sunday 23 Nov 2014 (Local Time) from KSKA Reporting Station
Few Clouds Few Clouds  
Wind Chill: 25°   Ceiling: Unl
Heat Index: 36°   Visibility: 10mi
Dew Point: 32°   Wind: 17mph
Humidity: 87%   Direction: 240°WSW
Pressure: 30"   Gusts: NA
Location:  47.3°N, 117.98°W
Report Text: KSKA 240115Z AUTO 24015KT 10SM FEW190 02/00 A3000 RMK AO2
Loading
Personal Weather Stations






























Interactive Weather Map New forecast layout! Learn more

10-Day Weather Forecast

Advertisements
Track Severe Weather on mobile